createdAt,value
2023-04-04T00:00:21.423Z,1.80
2023-04-04T00:02:49.784Z,2.10
2023-04-04T00:05:16.466Z,1.80
2023-04-04T00:07:46.387Z,1.83
2023-04-04T00:10:13.032Z,2.10
2023-04-04T00:12:39.354Z,1.90
2023-04-04T00:15:06.445Z,1.90
2023-04-04T00:17:33.107Z,2.10
2023-04-04T00:19:59.545Z,2.07
2023-04-04T00:22:25.926Z,2.03
2023-04-04T00:24:52.267Z,2.13
2023-04-04T00:27:18.631Z,2.00
2023-04-04T00:29:45.442Z,1.67
2023-04-04T00:32:11.893Z,2.10
2023-04-04T00:34:38.473Z,2.13
2023-04-04T00:37:07.390Z,2.80
2023-04-04T00:39:34.294Z,3.00
2023-04-04T00:42:00.913Z,2.63
2023-04-04T00:44:27.349Z,2.20
2023-04-04T00:46:53.838Z,2.83
2023-04-04T00:49:20.221Z,2.90
2023-04-04T00:51:46.701Z,2.93
2023-04-04T00:54:13.234Z,2.30
2023-04-04T00:56:39.973Z,2.90
2023-04-04T00:59:07.535Z,2.70
2023-04-04T01:01:34.089Z,2.10
2023-04-04T01:04:00.597Z,1.80
2023-04-04T01:06:27.937Z,2.57
2023-04-04T01:08:54.539Z,2.83
2023-04-04T01:11:21.365Z,3.10
2023-04-04T01:13:48.016Z,2.90
2023-04-04T01:16:14.450Z,2.90
2023-04-04T01:18:42.429Z,2.27
2023-04-04T01:21:12.276Z,2.17
2023-04-04T01:24:02.254Z,2.50
2023-04-04T01:26:29.362Z,2.10
2023-04-04T01:28:56.972Z,2.13
2023-04-04T01:31:27.689Z,2.20
2023-04-04T01:34:06.731Z,2.80
2023-04-04T01:36:43.294Z,2.20
2023-04-04T01:39:25.097Z,2.40
2023-04-04T01:41:51.985Z,2.20
2023-04-04T01:44:19.122Z,2.40
2023-04-04T01:46:45.537Z,2.17
2023-04-04T01:49:12.076Z,2.10
2023-04-04T01:51:39.096Z,2.10
2023-04-04T01:54:05.473Z,1.97
2023-04-04T01:56:32.917Z,1.70
2023-04-04T01:58:59.294Z,2.50
2023-04-04T02:01:25.757Z,1.90
2023-04-04T02:03:52.792Z,2.10
2023-04-04T02:06:19.305Z,2.27
2023-04-04T02:08:45.731Z,2.20
2023-04-04T02:11:12.336Z,2.10
2023-04-04T02:13:41.252Z,1.90
2023-04-04T02:16:07.634Z,2.00
2023-04-04T02:18:34.398Z,1.83
2023-04-04T02:21:00.989Z,1.50
2023-04-04T02:23:27.437Z,2.20
2023-04-04T02:25:53.784Z,2.10
2023-04-04T02:28:20.576Z,2.00
2023-04-04T02:30:47.172Z,1.70
2023-04-04T02:33:13.596Z,2.77
2023-04-04T02:35:40.046Z,1.90
2023-04-04T02:38:06.604Z,2.37
2023-04-04T02:40:32.972Z,2.20
2023-04-04T02:42:59.312Z,2.10
2023-04-04T02:45:25.920Z,1.73
2023-04-04T02:47:52.928Z,1.80
2023-04-04T02:50:19.317Z,1.90
2023-04-04T02:52:46.275Z,2.40
2023-04-04T02:55:12.642Z,2.23
2023-04-04T02:57:39.078Z,2.00
2023-04-04T03:00:07.093Z,2.40
2023-04-04T03:02:33.584Z,2.10
2023-04-04T03:05:00.062Z,2.20
2023-04-04T03:07:26.748Z,2.00
2023-04-04T03:09:53.149Z,1.80
2023-04-04T03:12:22.528Z,1.77
2023-04-04T03:14:48.886Z,1.80
2023-04-04T03:17:15.347Z,2.10
2023-04-04T03:19:41.880Z,1.90
2023-04-04T03:22:08.245Z,2.00
2023-04-04T03:24:37.182Z,1.80
2023-04-04T03:27:03.985Z,2.47
2023-04-04T03:29:30.524Z,2.10
2023-04-04T03:31:56.915Z,2.10
2023-04-04T03:34:24.701Z,2.13
2023-04-04T03:36:53.487Z,1.80
2023-04-04T03:39:20.212Z,2.10
2023-04-04T03:41:46.746Z,2.17
2023-04-04T03:44:13.160Z,1.70
2023-04-04T03:46:39.461Z,1.77
2023-04-04T03:49:05.888Z,2.20
2023-04-04T03:51:32.640Z,1.77
2023-04-04T03:53:58.974Z,2.00
2023-04-04T03:56:25.705Z,1.80
2023-04-04T03:58:52.194Z,2.10
2023-04-04T04:01:18.565Z,2.00
2023-04-04T04:03:44.981Z,1.80
2023-04-04T04:06:11.546Z,1.93
2023-04-04T04:08:37.874Z,1.87
2023-04-04T04:11:05.525Z,1.90
2023-04-04T04:13:31.908Z,1.90
2023-04-04T04:15:58.361Z,1.90
2023-04-04T04:18:24.853Z,1.90
2023-04-04T04:20:51.389Z,1.80
2023-04-04T04:23:17.752Z,2.20
2023-04-04T04:25:47.677Z,1.93
2023-04-04T04:28:14.107Z,1.87
2023-04-04T04:30:41.005Z,1.77
2023-04-04T04:33:08.282Z,2.00
2023-04-04T04:35:39.681Z,2.00
2023-04-04T04:38:07.010Z,1.80
2023-04-04T04:40:34.209Z,1.70
2023-04-04T04:43:00.582Z,2.13
2023-04-04T04:45:27.520Z,2.37
2023-04-04T04:47:54.571Z,1.97
2023-04-04T04:50:21.144Z,1.90
2023-04-04T04:52:50.501Z,2.00
2023-04-04T04:55:17.654Z,2.03
2023-04-04T04:57:44.040Z,2.20
2023-04-04T05:00:11.041Z,1.77
2023-04-04T05:02:37.547Z,1.93
2023-04-04T05:05:04.573Z,2.07
2023-04-04T05:07:30.964Z,2.20
2023-04-04T05:09:57.266Z,1.80
2023-04-04T05:12:23.910Z,2.20
2023-04-04T05:14:50.362Z,1.93
2023-04-04T05:17:16.847Z,1.80
2023-04-04T05:19:43.294Z,2.40
2023-04-04T05:22:09.638Z,2.10
2023-04-04T05:24:35.972Z,2.20
2023-04-04T05:27:02.348Z,2.00
2023-04-04T05:29:29.111Z,1.83
2023-04-04T05:31:55.781Z,2.30
2023-04-04T05:34:22.189Z,2.40
2023-04-04T05:36:48.479Z,2.60
2023-04-04T05:39:14.814Z,2.57
2023-04-04T05:41:41.143Z,2.17
2023-04-04T05:44:07.517Z,2.13
2023-04-04T05:46:33.947Z,2.50
2023-04-04T05:49:00.565Z,2.30
2023-04-04T05:51:26.850Z,2.17
2023-04-04T05:53:53.197Z,2.50
2023-04-04T05:56:19.579Z,2.07
2023-04-04T05:58:46.907Z,2.33
2023-04-04T06:01:13.259Z,2.60
2023-04-04T06:03:39.843Z,2.73
2023-04-04T06:06:07.156Z,2.87
2023-04-04T06:08:40.161Z,2.40
2023-04-04T06:11:16.981Z,2.93
2023-04-04T06:13:43.366Z,2.60
2023-04-04T06:16:09.760Z,2.70
2023-04-04T06:18:36.115Z,2.63
2023-04-04T06:21:02.682Z,2.47
2023-04-04T06:23:29.013Z,2.90
2023-04-04T06:25:55.436Z,2.73
2023-04-04T06:28:21.900Z,2.83
2023-04-04T06:30:48.724Z,2.77
2023-04-04T06:33:15.082Z,2.40
2023-04-04T06:35:41.601Z,2.33
2023-04-04T06:38:08.620Z,2.90
2023-04-04T06:40:35.021Z,2.57
2023-04-04T06:43:01.888Z,2.13
2023-04-04T06:45:28.531Z,1.90
2023-04-04T06:47:55.331Z,1.93
2023-04-04T06:50:22.862Z,1.97
2023-04-04T06:52:49.655Z,1.90
2023-04-04T06:55:19.432Z,1.77
2023-04-04T06:57:45.773Z,2.10
2023-04-04T07:00:12.956Z,1.70
2023-04-04T07:02:39.435Z,1.70
2023-04-04T07:05:06.567Z,2.27
2023-04-04T07:07:32.954Z,1.60
2023-04-04T07:09:59.254Z,1.90
2023-04-04T07:12:25.828Z,1.90
2023-04-04T07:14:52.744Z,1.57
2023-04-04T07:17:24.744Z,1.53
2023-04-04T07:19:51.893Z,1.60
2023-04-04T07:22:18.261Z,1.50
2023-04-04T07:24:44.902Z,2.10
2023-04-04T07:27:11.590Z,1.90
2023-04-04T07:29:37.991Z,1.90
2023-04-04T07:32:04.465Z,1.77
2023-04-04T07:34:30.918Z,2.00
2023-04-04T07:36:57.293Z,1.60
2023-04-04T07:39:23.709Z,1.80
2023-04-04T07:41:50.209Z,1.90
2023-04-04T07:44:16.600Z,1.90
2023-04-04T07:46:43.009Z,2.17
2023-04-04T07:49:09.372Z,1.90
2023-04-04T07:51:36.109Z,1.90
2023-04-04T07:54:03.144Z,1.83
2023-04-04T07:56:29.689Z,1.87
2023-04-04T07:58:56.232Z,2.30
2023-04-04T08:01:22.805Z,2.00
2023-04-04T08:03:50.342Z,1.93
2023-04-04T08:06:16.844Z,2.00
2023-04-04T08:08:43.793Z,1.70
2023-04-04T08:11:10.206Z,1.63
2023-04-04T08:13:36.769Z,2.00
2023-04-04T08:16:03.298Z,2.00
2023-04-04T08:18:29.705Z,1.73
2023-04-04T08:20:56.064Z,1.90
2023-04-04T08:23:22.532Z,2.13
2023-04-04T08:25:49.001Z,1.73
2023-04-04T08:28:15.530Z,1.83
2023-04-04T08:30:42.006Z,1.90
2023-04-04T08:33:09.316Z,2.07
2023-04-04T08:35:36.468Z,2.00
2023-04-04T08:38:06.067Z,2.10
2023-04-04T08:40:34.758Z,2.73
2023-04-04T08:43:01.762Z,2.43
2023-04-04T08:45:30.660Z,5.53
2023-04-04T08:47:59.404Z,3.10
2023-04-04T08:50:26.898Z,2.50
2023-04-04T08:52:54.605Z,2.13
2023-04-04T08:55:21.299Z,2.23
2023-04-04T08:57:47.678Z,2.13
2023-04-04T09:00:14.702Z,2.00
2023-04-04T09:03:27.496Z,2.40
2023-04-04T09:05:55.406Z,2.20
2023-04-04T09:08:24.699Z,2.10
2023-04-04T09:10:52.891Z,2.10
2023-04-04T09:13:19.825Z,2.57
2023-04-04T09:15:52.293Z,2.07
2023-04-04T09:18:19.022Z,2.27
2023-04-04T09:20:47.102Z,2.60
2023-04-04T09:23:15.647Z,1.93
2023-04-04T09:26:02.631Z,2.50
2023-04-04T09:28:31.226Z,2.60
2023-04-04T09:31:00.431Z,2.80
2023-04-04T09:33:26.865Z,2.53
2023-04-04T09:36:03.442Z,2.40
2023-04-04T09:38:31.372Z,2.20
2023-04-04T09:40:58.139Z,2.30
2023-04-04T09:43:24.949Z,2.10
2023-04-04T09:45:52.159Z,2.27
2023-04-04T09:48:32.150Z,3.13
2023-04-04T09:50:59.315Z,3.17
2023-04-04T09:53:26.220Z,2.43
2023-04-04T09:55:54.926Z,2.50
2023-04-04T09:58:28.885Z,2.30
2023-04-04T10:01:03.418Z,2.80
2023-04-04T10:03:30.882Z,2.30
2023-04-04T10:06:04.240Z,3.00
2023-04-04T10:08:32.976Z,2.60
2023-04-04T10:11:09.481Z,2.73
2023-04-04T10:13:42.147Z,3.03
2023-04-04T10:16:09.145Z,2.30
2023-04-04T10:18:36.887Z,2.37
2023-04-04T10:21:15.321Z,3.10
2023-04-04T10:23:45.573Z,2.23
2023-04-04T10:26:13.350Z,3.77
2023-04-04T10:28:42.420Z,2.97
2023-04-04T10:31:24.152Z,2.30
2023-04-04T10:34:12.876Z,3.50
2023-04-04T10:36:49.973Z,2.50
2023-04-04T10:39:36.528Z,2.50
2023-04-04T10:42:05.689Z,3.53
2023-04-04T10:44:33.976Z,3.00
2023-04-04T10:47:15.008Z,2.60
2023-04-04T10:49:44.829Z,3.73
2023-04-04T10:52:13.683Z,2.87
2023-04-04T10:54:44.788Z,2.20
2023-04-04T10:57:14.027Z,2.27
2023-04-04T11:00:12.978Z,2.20
2023-04-04T11:02:59.560Z,2.57
2023-04-04T11:05:27.261Z,2.43
2023-04-04T11:08:07.606Z,2.73
2023-04-04T11:10:41.560Z,2.33
2023-04-04T11:13:17.184Z,2.23
2023-04-04T11:15:52.583Z,2.30
2023-04-04T11:18:33.230Z,3.20
2023-04-04T11:21:05.110Z,3.43
2023-04-04T11:23:51.965Z,2.00
2023-04-04T11:26:39.593Z,2.10
2023-04-04T11:29:14.171Z,2.23
2023-04-04T11:31:43.857Z,2.20
2023-04-04T11:34:15.012Z,2.40
2023-04-04T11:36:42.996Z,2.27
2023-04-04T11:39:13.379Z,2.20
2023-04-04T11:41:52.183Z,2.20
2023-04-04T11:44:19.913Z,2.30
2023-04-04T11:46:48.546Z,2.60
2023-04-04T11:49:17.290Z,2.70
2023-04-04T11:51:43.760Z,2.40
2023-04-04T11:54:17.438Z,2.30
2023-04-04T11:56:45.166Z,2.57
2023-04-04T11:59:12.182Z,2.00
2023-04-04T12:01:39.626Z,2.03
2023-04-04T12:04:06.266Z,1.80
2023-04-04T12:06:32.780Z,2.30
2023-04-04T12:09:00.162Z,2.07
2023-04-04T12:11:28.749Z,2.40
2023-04-04T12:13:55.535Z,2.07
2023-04-04T12:16:22.094Z,2.03
2023-04-04T12:18:49.564Z,2.50
2023-04-04T12:21:16.296Z,2.37
2023-04-04T12:23:42.645Z,2.17
2023-04-04T12:26:09.485Z,2.20
2023-04-04T12:28:38.037Z,2.40
2023-04-04T12:31:06.703Z,2.40
2023-04-04T12:33:33.888Z,2.17
2023-04-04T12:36:03.350Z,2.60
2023-04-04T12:38:31.293Z,2.00
2023-04-04T12:40:58.243Z,2.50
2023-04-04T12:43:29.324Z,2.50
2023-04-04T12:45:57.989Z,2.20
2023-04-04T12:48:28.825Z,2.50
2023-04-04T12:50:59.849Z,2.97
2023-04-04T12:53:29.476Z,2.17
2023-04-04T12:56:02.286Z,2.50
2023-04-04T12:58:29.290Z,2.00
2023-04-04T13:01:00.650Z,1.90
2023-04-04T13:03:28.741Z,1.90
2023-04-04T13:05:55.202Z,2.47
2023-04-04T13:08:22.016Z,2.30
2023-04-04T13:10:59.823Z,2.40
2023-04-04T13:13:36.832Z,2.13
2023-04-04T13:16:06.238Z,2.20
2023-04-04T13:18:37.330Z,3.17
2023-04-04T13:21:07.082Z,2.40
2023-04-04T13:23:35.896Z,2.80
2023-04-04T13:26:04.453Z,2.20
2023-04-04T13:28:31.265Z,2.23
2023-04-04T13:30:58.044Z,6.27
2023-04-04T13:33:24.465Z,2.00
2023-04-04T13:35:51.504Z,2.30
2023-04-04T13:38:17.946Z,2.20
2023-04-04T13:40:44.668Z,2.20
2023-04-04T13:43:12.699Z,1.97
2023-04-04T13:45:39.390Z,1.90
2023-04-04T13:48:05.980Z,2.60
2023-04-04T13:50:33.088Z,2.27
2023-04-04T13:52:59.602Z,2.20
2023-04-04T13:55:26.578Z,1.80
2023-04-04T13:57:52.951Z,2.13
2023-04-04T14:00:19.507Z,2.20
2023-04-04T14:02:46.571Z,2.10
2023-04-04T14:05:13.084Z,2.40
2023-04-04T14:07:39.491Z,2.23
2023-04-04T14:10:06.955Z,2.00
2023-04-04T14:12:34.103Z,2.17
2023-04-04T14:15:00.450Z,2.17
2023-04-04T14:17:27.142Z,3.03
2023-04-04T14:19:53.586Z,2.50
2023-04-04T14:22:19.932Z,2.00
2023-04-04T14:24:46.259Z,1.90
2023-04-04T14:27:12.762Z,2.13
2023-04-04T14:29:39.274Z,2.10
2023-04-04T14:32:05.873Z,2.37
2023-04-04T14:34:32.258Z,2.50
2023-04-04T14:36:59.767Z,2.20
2023-04-04T14:39:26.564Z,2.00
2023-04-04T14:41:53.019Z,2.00
2023-04-04T14:44:21.199Z,2.20
2023-04-04T14:46:47.639Z,2.33
2023-04-04T14:49:14.158Z,2.13
2023-04-04T14:51:40.906Z,3.00
2023-04-04T14:54:07.266Z,2.20
2023-04-04T14:56:33.742Z,2.33
2023-04-04T14:59:01.805Z,2.27
2023-04-04T15:01:29.082Z,2.23
2023-04-04T15:03:56.307Z,2.30
2023-04-04T15:06:22.916Z,2.40
2023-04-04T15:08:49.904Z,2.40
2023-04-04T15:11:16.629Z,1.80
2023-04-04T15:13:44.036Z,2.37
2023-04-04T15:16:10.669Z,2.73
2023-04-04T15:18:38.020Z,2.20
2023-04-04T15:21:05.010Z,2.20
2023-04-04T15:23:31.338Z,2.47
2023-04-04T15:25:57.778Z,2.13
2023-04-04T15:28:24.125Z,2.70
2023-04-04T15:30:50.738Z,2.50
2023-04-04T15:33:17.244Z,2.30
2023-04-04T15:35:43.651Z,2.60
2023-04-04T15:38:10.135Z,2.50
2023-04-04T15:40:36.520Z,3.13
2023-04-04T15:43:02.929Z,2.30
2023-04-04T15:45:29.411Z,2.20
2023-04-04T15:47:55.897Z,2.60
2023-04-04T15:50:22.403Z,2.53
2023-04-04T15:52:48.733Z,2.70
2023-04-04T15:55:17.014Z,2.63
2023-04-04T15:57:44.756Z,2.60
2023-04-04T16:00:13.221Z,2.63
2023-04-04T16:02:39.826Z,2.37
2023-04-04T16:05:06.962Z,3.10
2023-04-04T16:07:33.331Z,2.50
2023-04-04T16:09:59.649Z,2.60
2023-04-04T16:12:26.388Z,2.60
2023-04-04T16:14:52.729Z,2.20
2023-04-04T16:17:19.093Z,2.57
2023-04-04T16:19:46.260Z,2.87
2023-04-04T16:22:15.141Z,2.50
2023-04-04T16:24:41.595Z,2.40
2023-04-04T16:27:07.923Z,3.67
2023-04-04T16:29:34.343Z,3.43
2023-04-04T16:32:00.723Z,2.30
2023-04-04T16:34:27.108Z,3.00
2023-04-04T16:36:53.433Z,2.43
2023-04-04T16:39:20.158Z,2.90
2023-04-04T16:41:46.535Z,2.20
2023-04-04T16:44:15.631Z,2.83
2023-04-04T16:46:42.165Z,2.37
2023-04-04T16:49:09.363Z,3.60
2023-04-04T16:51:35.791Z,3.60
2023-04-04T16:54:02.168Z,4.50
2023-04-04T16:56:28.495Z,3.10
2023-04-04T16:58:54.928Z,3.10
2023-04-04T17:01:23.020Z,2.83
2023-04-04T17:03:49.762Z,2.20
2023-04-04T17:06:16.199Z,2.30
2023-04-04T17:08:44.924Z,2.50
2023-04-04T17:11:12.970Z,2.40
2023-04-04T17:13:39.302Z,2.87
2023-04-04T17:16:05.820Z,2.17
2023-04-04T17:18:32.244Z,2.50
2023-04-04T17:20:58.641Z,2.50
2023-04-04T17:23:25.013Z,2.60
2023-04-04T17:25:51.440Z,2.60
2023-04-04T17:28:19.260Z,2.40
2023-04-04T17:30:46.071Z,2.47
2023-04-04T17:33:14.451Z,2.37
2023-04-04T17:35:40.916Z,2.50
2023-04-04T17:38:07.330Z,3.03
2023-04-04T17:40:36.224Z,2.60
2023-04-04T17:43:02.560Z,2.30
2023-04-04T17:45:29.434Z,2.43
2023-04-04T17:47:55.765Z,2.60
2023-04-04T17:50:22.546Z,2.63
2023-04-04T17:52:48.880Z,2.47
2023-04-04T17:55:16.370Z,2.50
2023-04-04T17:57:44.872Z,2.63
2023-04-04T18:00:12.759Z,2.47
2023-04-04T18:02:39.187Z,2.80
2023-04-04T18:05:06.858Z,2.60
2023-04-04T18:07:33.361Z,3.17
2023-04-04T18:09:59.722Z,3.00
2023-04-04T18:12:30.130Z,3.10
2023-04-04T18:14:56.595Z,2.90
2023-04-04T18:17:23.715Z,2.93
2023-04-04T18:19:50.074Z,3.33
2023-04-04T18:22:16.520Z,2.30
2023-04-04T18:24:42.876Z,2.70
2023-04-04T18:27:10.223Z,2.57
2023-04-04T18:29:36.553Z,3.37
2023-04-04T18:32:03.723Z,2.70
2023-04-04T18:34:30.489Z,3.03
2023-04-04T18:36:56.788Z,3.17
2023-04-04T18:39:23.444Z,3.20
2023-04-04T18:41:50.080Z,3.20
2023-04-04T18:44:16.440Z,3.33
2023-04-04T18:46:42.927Z,3.73
2023-04-04T18:49:09.412Z,3.50
2023-04-04T18:51:35.767Z,3.60
2023-04-04T18:54:04.216Z,3.87
2023-04-04T18:56:30.574Z,3.53
2023-04-04T18:58:56.962Z,2.83
2023-04-04T19:01:24.370Z,3.57
2023-04-04T19:03:55.280Z,2.93
2023-04-04T19:06:26.644Z,3.17
2023-04-04T19:08:54.385Z,3.37
2023-04-04T19:11:20.790Z,3.33
2023-04-04T19:13:47.133Z,3.33
2023-04-04T19:16:13.484Z,3.00
2023-04-04T19:18:39.847Z,3.33
2023-04-04T19:21:07.572Z,3.60
2023-04-04T19:23:34.765Z,3.57
2023-04-04T19:26:04.209Z,3.43
2023-04-04T19:28:30.967Z,3.70
2023-04-04T19:30:57.512Z,3.63
2023-04-04T19:33:25.963Z,3.57
2023-04-04T19:35:59.089Z,3.17
2023-04-04T19:38:32.809Z,3.23
2023-04-04T19:41:01.195Z,3.27
2023-04-04T19:43:29.057Z,3.27
2023-04-04T19:45:57.681Z,2.77
2023-04-04T19:48:49.890Z,3.00
2023-04-04T19:51:22.255Z,3.47
2023-04-04T19:53:59.668Z,3.10
2023-04-04T19:56:27.865Z,3.60
2023-04-04T19:58:59.666Z,3.17
2023-04-04T20:01:28.088Z,3.70
2023-04-04T20:03:56.182Z,3.70
2023-04-04T20:06:27.868Z,3.40
2023-04-04T20:08:56.428Z,3.67
2023-04-04T20:11:30.176Z,3.37
2023-04-04T20:13:57.964Z,3.47
2023-04-04T20:16:24.956Z,3.30
2023-04-04T20:18:51.760Z,3.23
2023-04-04T20:21:27.027Z,3.60
2023-04-04T20:23:55.692Z,3.00
2023-04-04T20:26:40.857Z,3.27
2023-04-04T20:29:09.542Z,2.90
2023-04-04T20:31:52.579Z,3.03
2023-04-04T20:34:45.270Z,3.07
2023-04-04T20:37:22.469Z,3.03
2023-04-04T20:39:53.642Z,3.30
2023-04-04T20:42:20.048Z,3.17
2023-04-04T20:44:46.933Z,3.20
2023-04-04T20:47:41.617Z,3.30
2023-04-04T20:50:40.112Z,3.10
2023-04-04T20:53:07.296Z,3.10
2023-04-04T20:55:35.384Z,3.47
2023-04-04T20:58:08.733Z,3.27
2023-04-04T21:00:42.160Z,3.80
2023-04-04T21:03:11.687Z,3.90
2023-04-04T21:05:39.828Z,4.17
2023-04-04T21:08:24.602Z,4.00
2023-04-04T21:10:55.872Z,4.07
2023-04-04T21:13:38.798Z,4.17
2023-04-04T21:16:16.909Z,3.80
2023-04-04T21:18:43.639Z,3.80
2023-04-04T21:21:12.022Z,3.47
2023-04-04T21:23:52.984Z,3.83
2023-04-04T21:26:32.056Z,3.50
2023-04-04T21:29:01.084Z,3.57
2023-04-04T21:31:35.250Z,3.27
2023-04-04T21:34:08.460Z,3.40
2023-04-04T21:36:34.961Z,3.87
2023-04-04T21:39:05.795Z,3.70
2023-04-04T21:41:34.216Z,4.13
2023-04-04T21:44:02.768Z,4.47
2023-04-04T21:46:32.336Z,4.90
2023-04-04T21:48:58.861Z,3.93
2023-04-04T21:51:26.124Z,3.80
2023-04-04T21:53:52.798Z,3.97
2023-04-04T21:56:19.694Z,4.07
2023-04-04T21:58:46.136Z,4.17
2023-04-04T22:01:12.563Z,3.53
2023-04-04T22:03:40.540Z,3.50
2023-04-04T22:06:07.496Z,4.30
2023-04-04T22:08:33.897Z,3.87
2023-04-04T22:11:02.269Z,3.63
2023-04-04T22:13:35.406Z,4.03
2023-04-04T22:16:04.455Z,4.37
2023-04-04T22:18:30.981Z,4.00
2023-04-04T22:20:58.540Z,4.77
2023-04-04T22:23:25.483Z,4.43
2023-04-04T22:25:52.024Z,4.00
2023-04-04T22:28:18.412Z,4.60
2023-04-04T22:30:44.789Z,3.97
2023-04-04T22:33:11.866Z,3.90
2023-04-04T22:35:39.517Z,4.57
2023-04-04T22:38:06.348Z,4.10
2023-04-04T22:40:33.984Z,3.40
2023-04-04T22:43:01.462Z,3.83
2023-04-04T22:45:29.556Z,3.77
2023-04-04T22:47:57.835Z,3.63
2023-04-04T22:50:24.852Z,3.67
2023-04-04T22:52:54.756Z,4.50
2023-04-04T22:55:23.467Z,3.53
2023-04-04T22:57:50.334Z,3.50
2023-04-04T23:00:17.357Z,4.07
2023-04-04T23:02:46.088Z,4.30
2023-04-04T23:05:14.357Z,3.80
2023-04-04T23:07:41.386Z,4.00
2023-04-04T23:10:11.511Z,4.73
2023-04-04T23:12:38.511Z,4.10
2023-04-04T23:15:06.950Z,4.10
2023-04-04T23:17:34.395Z,4.00
2023-04-04T23:20:01.810Z,3.80
2023-04-04T23:22:28.884Z,4.03
2023-04-04T23:24:55.599Z,3.63
2023-04-04T23:27:21.981Z,3.70
2023-04-04T23:29:50.687Z,3.57
2023-04-04T23:32:17.014Z,4.40
2023-04-04T23:34:43.326Z,3.87
2023-04-04T23:37:09.762Z,4.37
2023-04-04T23:39:36.599Z,4.30
2023-04-04T23:42:03.065Z,4.20
2023-04-04T23:44:29.437Z,4.40
2023-04-04T23:46:55.890Z,4.80
2023-04-04T23:49:22.422Z,4.07
2023-04-04T23:51:48.954Z,6.20
2023-04-04T23:54:15.448Z,6.00
2023-04-04T23:56:41.791Z,4.40
2023-04-04T23:59:08.265Z,3.80
